Time;durP1;ratioP1;P1;durP2;ratioP2;P2;SDS_P1;SDS_P2;PMS_P1;PMS_P2;Temp;Humidity;BMP_temperature;BMP_pressure;BME280_temperature;BME280_humidity;BME280_pressure;Samples;Min_cycle;Max_cycle;Signal;HPM_P1;HPM_P2
2020/12/04 00:02:14;;;;;;;395.33;184.45;;;;;;;-1.69;65.69;94217.39;1727177;81;21509;-54
2020/12/04 00:04:42;;;;;;;410.63;187.55;;;;;;;-1.71;65.80;94210.26;1727334;83;21500;-54
2020/12/04 00:07:11;;;;;;;390.30;187.37;;;;;;;-1.71;65.53;94217.00;1727319;83;22334;-54
2020/12/04 00:09:42;;;;;;;412.92;192.92;;;;;;;-1.79;65.48;94211.38;1726845;82;21111;-53
2020/12/04 00:12:10;;;;;;;406.23;189.67;;;;;;;-1.89;65.54;94216.19;1727183;83;21579;-53
2020/12/04 00:14:41;;;;;;;373.75;169.82;;;;;;;-1.95;65.93;94219.62;1727173;82;21075;-55
2020/12/04 00:17:09;;;;;;;353.55;168.97;;;;;;;-1.94;66.27;94223.27;1727254;83;21079;-54
2020/12/04 00:19:37;;;;;;;363.98;160.75;;;;;;;-1.93;66.23;94217.32;1727279;83;22278;-54
2020/12/04 00:22:06;;;;;;;339.80;159.82;;;;;;;-1.85;66.06;94216.95;1727251;83;21166;-54
2020/12/04 00:24:34;;;;;;;324.12;145.00;;;;;;;-1.76;65.66;94207.91;1727178;81;21104;-55
2020/12/04 00:27:03;;;;;;;350.62;162.95;;;;;;;-1.89;65.24;94217.53;1727181;83;21071;-54
2020/12/04 00:29:32;;;;;;;349.00;161.97;;;;;;;-2.13;65.33;94218.20;1727316;83;21587;-54
2020/12/04 00:32:00;;;;;;;348.85;159.45;;;;;;;-2.35;65.58;94224.67;1727193;83;21509;-55
2020/12/04 00:34:29;;;;;;;332.05;154.45;;;;;;;-2.49;65.95;94219.80;1733456;82;21134;-53
2020/12/04 00:36:57;;;;;;;324.55;150.42;;;;;;;-2.53;66.21;94217.08;1735556;82;21539;-54
2020/12/04 00:39:27;;;;;;;333.57;158.45;;;;;;;-2.55;66.50;94214.00;1735526;81;21171;-54
2020/12/04 00:41:59;;;;;;;331.15;154.00;;;;;;;-2.52;66.57;94215.93;1700128;84;21646;-54
2020/12/04 00:44:27;;;;;;;327.93;149.02;;;;;;;-2.50;66.64;94219.02;1700139;84;21283;-54
2020/12/04 00:47:01;;;;;;;302.07;144.25;;;;;;;-2.46;66.67;94206.36;1700070;84;21206;-54
2020/12/04 00:49:30;;;;;;;339.25;157.15;;;;;;;-2.41;66.86;94207.34;1700135;84;21175;-55
2020/12/04 00:51:58;;;;;;;312.30;146.22;;;;;;;-2.40;66.72;94204.84;1700164;84;21590;-55
2020/12/04 00:54:27;;;;;;;298.45;140.82;;;;;;;-2.40;66.83;94201.36;1700124;84;21250;-54
2020/12/04 00:56:56;;;;;;;309.27;139.60;;;;;;;-2.39;66.39;94205.03;1700110;84;21610;-54
2020/12/04 00:59:33;;;;;;;301.50;137.57;;;;;;;-2.47;66.42;94207.48;1699583;84;21542;-53
2020/12/04 01:02:01;;;;;;;290.12;128.25;;;;;;;-2.57;66.35;94216.30;1700117;84;21500;-54
2020/12/04 01:04:30;;;;;;;294.73;140.03;;;;;;;-2.65;66.37;94198.55;1700191;84;21615;-54
2020/12/04 01:06:58;;;;;;;291.65;137.43;;;;;;;-2.86;66.45;94206.52;1700115;84;21151;-53
2020/12/04 01:09:27;;;;;;;332.90;150.07;;;;;;;-3.01;66.84;94211.63;1700101;84;21220;-54
2020/12/04 01:11:55;;;;;;;305.62;142.07;;;;;;;-3.11;67.32;94212.31;1700112;84;21540;-54
2020/12/04 01:14:24;;;;;;;273.00;129.27;;;;;;;-3.15;67.41;94203.46;1700179;84;21523;-54
2020/12/04 01:16:54;;;;;;;285.65;131.00;;;;;;;-3.20;67.38;94196.31;1700089;84;21087;-54
2020/12/04 01:19:23;;;;;;;301.37;135.05;;;;;;;-3.27;67.59;94197.03;1700043;84;21083;-54
2020/12/04 01:21:51;;;;;;;273.90;128.42;;;;;;;-3.29;67.86;94199.88;1700096;84;22122;-54
2020/12/04 01:24:20;;;;;;;273.50;122.55;;;;;;;-3.28;67.93;94196.07;1699983;83;21130;-54
2020/12/04 01:26:48;;;;;;;262.65;125.35;;;;;;;-3.23;68.07;94193.78;1700092;84;21580;-53
2020/12/04 01:29:16;;;;;;;251.95;121.82;;;;;;;-3.15;67.72;94191.36;1700095;84;21634;-54
2020/12/04 01:31:48;;;;;;;275.77;126.78;;;;;;;-3.10;67.49;94191.56;1700140;84;21567;-54
2020/12/04 01:34:16;;;;;;;270.00;121.00;;;;;;;-3.01;67.53;94189.33;1695443;84;21265;-54
2020/12/04 01:36:45;;;;;;;285.02;132.15;;;;;;;-2.84;67.42;94184.63;1691603;84;21107;-54
2020/12/04 01:39:13;;;;;;;310.43;136.72;;;;;;;-2.67;67.00;94179.32;1691583;84;21105;-53
2020/12/04 01:41:42;;;;;;;298.40;135.95;;;;;;;-2.63;66.51;94181.48;1691654;84;21094;-54
2020/12/04 01:44:10;;;;;;;278.67;126.10;;;;;;;-2.71;66.33;94174.50;1691678;84;21616;-55
2020/12/04 01:46:39;;;;;;;268.25;124.38;;;;;;;-2.76;66.62;94168.70;1691565;84;21463;-54
2020/12/04 01:49:07;;;;;;;270.33;129.15;;;;;;;-2.79;66.59;94176.97;1691619;84;21568;-56
2020/12/04 01:51:35;;;;;;;261.82;121.67;;;;;;;-2.79;66.84;94170.24;1691544;84;21087;-54
2020/12/04 01:54:04;;;;;;;263.50;119.42;;;;;;;-2.71;66.71;94163.73;1691551;84;21091;-54
2020/12/04 01:56:38;;;;;;;269.30;122.15;;;;;;;-2.62;66.70;94169.56;1691659;84;21507;-54
2020/12/04 01:59:07;;;;;;;263.07;119.55;;;;;;;-2.56;66.11;94165.34;1691557;84;21380;-54
2020/12/04 02:01:38;;;;;;;257.12;120.75;;;;;;;-2.59;65.83;94168.80;1691474;84;21942;-53
2020/12/04 02:04:10;;;;;;;249.27;116.00;;;;;;;-2.63;65.80;94164.55;1691677;84;21151;-55
2020/12/04 02:07:04;;;;;;;247.05;117.00;;;;;;;-2.72;65.88;94168.92;1691560;84;21203;-54
2020/12/04 02:09:44;;;;;;;256.68;113.60;;;;;;;-2.79;66.29;94171.59;1691589;84;21099;-53
2020/12/04 02:12:15;;;;;;;244.97;112.35;;;;;;;-2.80;66.13;94174.09;1691530;84;21176;-54
2020/12/04 02:14:48;;;;;;;246.90;115.88;;;;;;;-2.77;66.45;94169.30;1691572;84;21132;-53
2020/12/04 02:17:16;;;;;;;248.60;113.88;;;;;;;-2.61;66.04;94168.41;1691565;84;21199;-53
2020/12/04 02:19:44;;;;;;;242.20;115.67;;;;;;;-2.56;65.63;94166.69;1691590;84;21516;-54
2020/12/04 02:22:13;;;;;;;245.07;110.57;;;;;;;-2.57;65.42;94159.77;1691642;84;21491;-55
2020/12/04 02:24:42;;;;;;;227.15;112.37;;;;;;;-2.64;65.34;94165.13;1691532;83;21520;-54
2020/12/04 02:27:15;;;;;;;230.40;106.80;;;;;;;-2.66;65.56;94164.71;1691485;84;21111;-54
2020/12/04 02:29:45;;;;;;;216.93;104.03;;;;;;;-2.72;65.49;94166.23;1691567;84;21084;-53
2020/12/04 02:32:15;;;;;;;213.62;103.20;;;;;;;-2.83;65.83;94170.78;1691477;84;21119;-54
2020/12/04 02:34:44;;;;;;;223.68;105.22;;;;;;;-2.91;65.95;94169.21;1698733;84;21094;-55
2020/12/04 02:37:12;;;;;;;288.90;127.22;;;;;;;-2.99;65.98;94158.78;1704332;84;22217;-54
2020/12/04 02:39:41;;;;;;;326.32;142.68;;;;;;;-3.15;66.15;94165.81;1704286;84;21123;-54
2020/12/04 02:42:09;;;;;;;335.52;142.35;;;;;;;-3.26;66.46;94167.64;1704295;84;21127;-53
2020/12/04 02:44:38;;;;;;;243.00;115.35;;;;;;;-3.27;66.79;94159.38;1704283;84;21146;-54
2020/12/04 02:47:07;;;;;;;229.28;105.25;;;;;;;-3.22;66.49;94162.30;1704321;84;21107;-55
2020/12/04 02:49:35;;;;;;;235.57;111.35;;;;;;;-3.39;66.42;94158.91;1704326;84;21711;-54
2020/12/04 02:52:06;;;;;;;264.12;119.72;;;;;;;-3.57;66.73;94167.97;1704295;84;21177;-54
2020/12/04 02:54:34;;;;;;;290.43;131.60;;;;;;;-3.55;67.41;94161.69;1704301;84;21075;-54
2020/12/04 02:57:03;;;;;;;310.35;135.63;;;;;;;-3.53;66.98;94166.11;1704290;84;21094;-54
2020/12/04 02:59:32;;;;;;;278.20;129.65;;;;;;;-3.59;67.11;94165.67;1704324;84;21079;-54
2020/12/04 03:02:00;;;;;;;313.68;132.22;;;;;;;-3.61;67.33;94159.91;1704327;84;21590;-54
2020/12/04 03:04:29;;;;;;;253.40;116.00;;;;;;;-3.67;67.27;94163.30;1704221;84;21950;-54
2020/12/04 03:06:57;;;;;;;234.77;106.60;;;;;;;-3.73;67.60;94154.05;1704376;84;21590;-56
2020/12/04 03:09:26;;;;;;;265.20;116.62;;;;;;;-3.71;67.71;94143.70;1704315;84;21538;-55
2020/12/04 03:11:56;;;;;;;248.97;110.05;;;;;;;-3.61;68.06;94149.72;1704352;84;21523;-53
2020/12/04 03:14:25;;;;;;;228.98;105.92;;;;;;;-3.44;67.86;94156.00;1704326;84;21369;-55
2020/12/04 03:16:54;;;;;;;228.35;102.85;;;;;;;-3.28;67.31;94145.73;1704257;84;21119;-56
2020/12/04 03:19:23;;;;;;;222.93;105.67;;;;;;;-3.28;67.01;94141.70;1704390;84;21485;-54
2020/12/04 03:21:51;;;;;;;234.03;100.67;;;;;;;-3.31;67.05;94146.49;1704300;84;21161;-54
2020/12/04 03:24:20;;;;;;;222.27;106.65;;;;;;;-3.31;66.90;94155.91;1704261;82;21594;-56
2020/12/04 03:26:49;;;;;;;238.47;108.20;;;;;;;-3.35;66.88;94151.64;1704333;84;22331;-54
2020/12/04 03:29:17;;;;;;;246.65;113.30;;;;;;;-3.36;67.08;94150.88;1704234;84;21187;-54
2020/12/04 03:31:45;;;;;;;293.90;124.92;;;;;;;-3.36;66.98;94153.58;1704354;84;21181;-55
2020/12/04 03:34:14;;;;;;;277.90;126.20;;;;;;;-3.41;66.85;94145.84;1704131;84;21183;-54
2020/12/04 03:36:43;;;;;;;290.48;126.50;;;;;;;-3.47;67.11;94143.30;1704295;84;21067;-54
2020/12/04 03:39:12;;;;;;;286.27;131.78;;;;;;;-3.41;66.94;94139.11;1704307;84;21524;-55
2020/12/04 03:41:40;;;;;;;266.20;122.78;;;;;;;-3.37;66.71;94128.39;1704237;84;21622;-55
2020/12/04 03:44:08;;;;;;;220.45;103.42;;;;;;;-3.30;66.83;94135.94;1704270;84;21147;-54
2020/12/04 03:46:37;;;;;;;213.82;101.85;;;;;;;-3.12;66.34;94130.65;1704289;84;21146;-55
2020/12/04 03:49:07;;;;;;;219.35;103.00;;;;;;;-3.09;66.26;94125.30;1704386;84;21524;-55
2020/12/04 03:51:36;;;;;;;201.27;97.15;;;;;;;-3.02;66.25;94117.84;1704368;84;22279;-55
2020/12/04 03:54:04;;;;;;;207.43;99.40;;;;;;;-2.94;66.19;94120.20;1704197;84;21531;-56
2020/12/04 03:56:33;;;;;;;211.97;97.75;;;;;;;-2.85;66.03;94123.89;1704286;84;21099;-57
2020/12/04 03:59:01;;;;;;;244.82;109.67;;;;;;;-2.76;65.55;94122.39;1704366;84;21571;-54
2020/12/04 04:01:32;;;;;;;279.52;118.95;;;;;;;-2.76;65.11;94125.09;1704246;84;21664;-55
2020/12/04 04:04:00;;;;;;;219.90;104.38;;;;;;;-2.75;65.15;94115.86;1704107;84;22409;-54
2020/12/04 04:06:29;;;;;;;489.25;266.68;;;;;;;-2.76;64.86;94127.77;1704180;84;21552;-54
2020/12/04 04:08:58;;;;;;;231.40;109.80;;;;;;;-2.85;64.84;94125.23;1704330;84;21151;-54
2020/12/04 04:11:26;;;;;;;211.40;105.17;;;;;;;-2.94;64.99;94128.27;1704385;84;21541;-54
2020/12/04 04:13:54;;;;;;;261.80;115.70;;;;;;;-2.94;64.68;94126.92;1704260;84;21012;-54
2020/12/04 04:16:23;;;;;;;222.93;108.27;;;;;;;-3.04;64.56;94133.59;1704230;84;22802;-54
2020/12/04 04:18:52;;;;;;;224.67;103.38;;;;;;;-3.26;64.68;94131.34;1704226;84;21103;-54
2020/12/04 04:21:21;;;;;;;220.85;105.40;;;;;;;-3.36;64.97;94134.75;1704267;84;21150;-55
2020/12/04 04:23:49;;;;;;;224.02;106.37;;;;;;;-3.35;65.38;94140.33;1704241;84;21193;-55
2020/12/04 04:26:18;;;;;;;215.18;102.92;;;;;;;-3.25;65.40;94137.51;1704223;82;21143;-54
2020/12/04 04:28:46;;;;;;;194.50;92.15;;;;;;;-3.16;65.21;94137.94;1704238;84;22536;-54
2020/12/04 04:31:15;;;;;;;183.40;89.00;;;;;;;-3.08;65.18;94145.67;1704194;84;21091;-54
2020/12/04 04:33:44;;;;;;;173.17;90.87;;;;;;;-2.99;64.78;94139.39;1704294;84;21483;-54
2020/12/04 04:36:12;;;;;;;180.63;88.20;;;;;;;-2.95;64.65;94139.39;1704184;84;21066;-54
2020/12/04 04:38:41;;;;;;;160.40;82.88;;;;;;;-2.93;64.51;94139.22;1704372;84;21147;-55
2020/12/04 04:41:09;;;;;;;165.07;80.00;;;;;;;-3.04;64.58;94138.39;1704398;84;21445;-53
2020/12/04 04:43:38;;;;;;;176.22;86.42;;;;;;;-3.09;64.92;94138.75;1704225;84;21195;-55
2020/12/04 04:46:20;;;;;;;162.27;81.80;;;;;;;-3.08;64.96;94145.67;1704374;84;21477;-54
2020/12/04 04:48:54;;;;;;;166.83;83.97;;;;;;;-3.04;65.09;94138.39;1704624;84;21134;-55
2020/12/04 04:51:22;;;;;;;168.05;83.42;;;;;;;-2.96;64.88;94152.09;1704328;84;21178;-55
2020/12/04 04:53:57;;;;;;;170.10;83.07;;;;;;;-2.91;64.69;94145.00;1704351;84;21210;-54
2020/12/04 04:56:25;;;;;;;160.12;80.38;;;;;;;-2.88;64.41;94148.27;1704353;84;21103;-54
2020/12/04 04:58:54;;;;;;;158.07;77.45;;;;;;;-2.93;64.35;94151.33;1704387;84;21530;-54
2020/12/04 05:01:23;;;;;;;158.52;76.07;;;;;;;-3.03;64.40;94149.93;1704452;84;21099;-57
2020/12/04 05:04:00;;;;;;;147.05;73.02;;;;;;;-3.09;64.96;94152.78;1704440;84;21507;-57
2020/12/04 05:06:36;;;;;;;150.27;79.27;;;;;;;-3.01;64.70;94139.00;1704388;84;21219;-57
2020/12/04 05:09:05;;;;;;;125.65;60.88;;;;;;;-3.04;64.35;94137.63;1704430;84;21515;-60
2020/12/04 05:11:33;;;;;;;156.35;78.55;;;;;;;-3.27;64.27;94153.25;1704386;84;21107;-60
2020/12/04 05:14:17;;;;;;;151.82;76.85;;;;;;;-3.58;64.76;94144.94;1674708;84;21136;-60
2020/12/04 05:16:45;;;;;;;145.30;75.70;;;;;;;-3.73;65.28;94158.08;1704479;84;21488;-60
2020/12/04 05:19:14;;;;;;;148.32;76.75;;;;;;;-3.79;65.87;94157.64;1704749;84;21468;-59
2020/12/04 05:21:42;;;;;;;134.50;70.10;;;;;;;-3.70;66.06;94160.02;1652906;84;21527;-61
2020/12/04 05:24:10;;;;;;;155.55;73.72;;;;;;;-3.65;65.67;94161.77;1704464;82;21154;-60
2020/12/04 05:26:40;;;;;;;154.93;73.00;;;;;;;-3.72;65.74;94170.37;1704376;84;21130;-59
2020/12/04 05:29:08;;;;;;;145.47;73.75;;;;;;;-3.78;65.86;94165.12;1704469;84;21583;-59
2020/12/04 05:31:37;;;;;;;149.95;72.12;;;;;;;-3.79;66.01;94174.32;1704391;84;21404;-57
2020/12/04 05:34:23;;;;;;;165.70;81.15;;;;;;;-3.74;65.91;94168.05;1704273;84;21544;-57
2020/12/04 05:36:52;;;;;;;245.48;114.37;;;;;;;-3.74;65.77;94159.20;1704266;84;21091;-56
2020/12/04 05:39:20;;;;;;;162.70;82.80;;;;;;;-3.79;66.07;94156.30;1704368;84;21603;-56
2020/12/04 05:41:49;;;;;;;192.72;88.10;;;;;;;-3.70;66.21;94156.75;1704324;84;21142;-55
2020/12/04 05:44:17;;;;;;;189.77;91.08;;;;;;;-3.61;65.99;94148.37;1704348;84;21775;-57
2020/12/04 05:46:53;;;;;;;168.52;84.72;;;;;;;-3.58;65.82;94150.31;1704289;84;21107;-56
2020/12/04 05:49:21;;;;;;;191.82;101.27;;;;;;;-3.54;65.71;94146.51;1704486;84;21528;-56
2020/12/04 05:51:53;;;;;;;184.97;92.10;;;;;;;-3.50;65.73;94149.44;1704556;84;21618;-56
2020/12/04 05:54:23;;;;;;;185.85;95.22;;;;;;;-3.45;65.68;94148.32;1704424;84;21079;-56
2020/12/04 05:56:51;;;;;;;206.78;105.92;;;;;;;-3.47;65.79;94147.34;1704446;84;21384;-56
2020/12/04 05:59:22;;;;;;;277.45;131.57;;;;;;;-3.43;65.85;94146.03;1704443;84;21623;-61
2020/12/04 06:01:50;;;;;;;301.02;140.03;;;;;;;-3.45;65.45;94146.39;1704426;84;21171;-56
2020/12/04 06:04:19;;;;;;;307.92;138.68;;;;;;;-3.47;65.51;94137.93;1704428;84;21191;-56
2020/12/04 06:06:49;;;;;;;297.10;135.55;;;;;;;-3.40;65.44;94138.55;1704323;84;21205;-56
2020/12/04 06:09:21;;;;;;;195.72;102.55;;;;;;;-3.34;65.22;94137.05;1704516;84;22081;-56
2020/12/04 06:11:50;;;;;;;173.20;82.47;;;;;;;-3.26;65.37;94136.72;1675368;84;21138;-56
2020/12/04 06:14:22;;;;;;;180.63;88.40;;;;;;;-3.32;65.23;94139.58;1704390;84;21579;-57
2020/12/04 06:17:05;;;;;;;184.37;89.28;;;;;;;-3.49;65.38;94136.75;1704518;84;21644;-56
2020/12/04 06:19:38;;;;;;;195.72;97.90;;;;;;;-3.66;65.66;94146.80;1704119;83;21166;-57
2020/12/04 06:22:13;;;;;;;186.00;93.85;;;;;;;-3.82;66.06;94144.95;1703840;84;22137;-58
2020/12/04 06:24:59;;;;;;;192.05;94.62;;;;;;;-3.86;66.60;94162.94;1704072;82;21627;-56
2020/12/04 06:27:45;;;;;;;187.10;93.40;;;;;;;-3.87;66.71;94158.70;1704314;84;21543;-56
2020/12/04 06:30:18;;;;;;;181.85;92.50;;;;;;;-3.80;66.92;94159.34;1704336;84;21098;-56
2020/12/04 06:32:48;;;;;;;207.15;104.07;;;;;;;-3.71;66.88;94158.48;1704458;84;21075;-57
2020/12/04 06:35:41;;;;;;;212.00;108.47;;;;;;;-3.58;66.89;94155.68;1704270;84;22690;-58
2020/12/04 06:38:40;;;;;;;187.20;94.62;;;;;;;-3.41;66.95;94158.52;1704194;84;21903;-57
2020/12/04 06:41:44;;;;;;;212.32;106.63;;;;;;;-3.16;66.38;94169.65;1704288;84;21126;-57
2020/12/04 06:44:20;;;;;;;214.55;107.80;;;;;;;-3.25;66.01;94165.73;1704375;84;21098;-58
2020/12/04 06:46:55;;;;;;;205.12;107.35;;;;;;;-3.34;66.34;94163.37;1704451;84;21606;-58
2020/12/04 06:52:12;;;;;;;236.07;123.45;;;;;;;-3.50;66.02;94153.47;1704247;84;21099;-58
2020/12/04 06:54:46;;;;;;;222.20;126.02;;;;;;;-3.53;66.42;94159.39;1704279;84;21598;-58
2020/12/04 06:57:20;;;;;;;237.80;126.87;;;;;;;-3.63;66.64;94157.38;1704193;84;21075;-57
2020/12/04 06:59:49;;;;;;;243.70;123.02;;;;;;;-3.72;66.89;94155.59;1704327;84;21199;-57
2020/12/04 07:02:22;;;;;;;252.45;128.23;;;;;;;-3.68;67.26;94161.77;1704275;84;21389;-57
2020/12/04 07:04:52;;;;;;;239.80;130.27;;;;;;;-3.59;67.62;94158.17;1711689;82;21150;-57
2020/12/04 07:07:25;;;;;;;239.75;128.53;;;;;;;-3.40;67.91;94163.51;1734064;82;21237;-56
2020/12/04 07:09:58;;;;;;;;;;;;;;;-3.13;67.64;94163.52;1736012;82;21092;-55
2020/12/04 07:12:27;;;;;;;278.57;148.03;;;;;;;-2.94;67.37;94163.80;1734422;82;20213;-56
2020/12/04 07:14:57;;;;;;;266.75;145.07;;;;;;;-2.89;67.45;94158.09;1728986;82;21285;-60
2020/12/04 07:17:30;;;;;;;250.80;135.18;;;;;;;-2.88;67.38;94163.07;1718991;83;21099;-60
2020/12/04 07:20:01;;;;;;;285.45;146.05;;;;;;;-2.86;67.31;94167.50;1731135;83;21084;-58
2020/12/04 07:22:30;;;;;;;316.33;173.30;;;;;;;-2.85;67.32;94158.87;1731049;82;21165;-59
2020/12/04 07:24:59;;;;;;;250.22;133.90;;;;;;;-2.89;67.30;94162.13;1730995;83;21146;-58
2020/12/04 07:27:30;;;;;;;309.23;169.43;;;;;;;-2.84;67.62;94170.58;1730957;83;21405;-58
2020/12/04 07:29:59;;;;;;;352.40;182.57;;;;;;;-2.77;67.59;94157.18;1730883;83;21146;-57
2020/12/04 07:32:28;;;;;;;342.70;171.57;;;;;;;-2.57;67.71;94162.46;1730955;83;21667;-57
2020/12/04 07:34:56;;;;;;;312.45;156.72;;;;;;;-2.39;67.49;94161.95;1730930;83;21087;-58
2020/12/04 07:37:29;;;;;;;253.55;142.57;;;;;;;-2.32;67.36;94167.35;1730845;83;21075;-58
2020/12/04 07:39:57;;;;;;;311.60;159.52;;;;;;;-2.31;67.43;94148.70;1730935;83;21217;-57
2020/12/04 07:42:28;;;;;;;238.68;125.35;;;;;;;-2.24;67.54;94146.60;1731056;83;21169;-58
2020/12/04 07:44:58;;;;;;;228.55;126.65;;;;;;;-2.19;67.58;94144.31;1730682;83;21269;-56
2020/12/04 07:47:26;;;;;;;274.12;148.13;;;;;;;-2.09;67.61;94140.89;1730924;83;21071;-58
2020/12/04 07:49:59;;;;;;;214.88;121.87;;;;;;;-1.96;67.74;94143.39;1731185;83;21071;-58
2020/12/04 07:52:35;;;;;;;209.85;118.10;;;;;;;-1.78;67.64;94138.80;1731329;83;22269;-57
2020/12/04 07:58:08;;;;;;;229.78;123.05;;;;;;;-1.33;67.17;94138.05;1882827;75;22637;-61
2020/12/04 08:00:37;;;;;;;203.67;102.32;;;;;;;-1.21;66.91;94144.38;1818258;78;21051;-59
2020/12/04 08:03:14;;;;;;;187.10;100.90;;;;;;;-1.05;66.78;94150.93;1824434;77;21191;-63
2020/12/04 08:05:55;;;;;;;178.57;97.80;;;;;;;-0.89;66.78;94147.80;1820396;77;22225;-57
2020/12/04 08:08:25;;;;;;;134.22;77.15;;;;;;;-0.87;66.76;94146.83;1756691;81;21091;-58
2020/12/04 08:11:08;;;;;;;132.97;80.70;;;;;;;-0.83;66.83;94138.14;1758346;81;21373;-60
2020/12/04 08:13:37;;;;;;;142.95;82.37;;;;;;;-0.74;66.92;94140.62;1733086;81;21174;-61
2020/12/04 08:16:09;;;;;;;122.33;74.87;;;;;;;-0.62;66.80;94139.45;1751598;81;21686;-59
2020/12/04 08:18:40;;;;;;;104.83;65.42;;;;;;;-0.51;66.66;94132.84;1742388;81;21609;-59
2020/12/04 08:21:09;;;;;;;88.12;51.23;;;;;;;-0.38;66.89;94134.53;1720754;81;21111;-59
2020/12/04 08:23:38;;;;;;;98.05;57.95;;;;;;;-0.31;66.93;94136.62;1757235;81;22377;-56
2020/12/04 08:26:18;;;;;;;75.95;46.02;;;;;;;-0.21;66.90;94125.58;1745783;81;21563;-63
2020/12/04 08:28:56;;;;;;;84.90;51.83;;;;;;;-0.07;67.09;94124.91;1767380;80;21131;-59
2020/12/04 08:31:25;;;;;;;89.10;51.20;;;;;;;0.03;66.87;94124.84;1766402;81;21076;-61
2020/12/04 08:33:53;;;;;;;83.15;51.33;;;;;;;0.13;66.87;94110.50;1754849;81;21074;-60
2020/12/04 08:36:25;;;;;;;59.50;39.05;;;;;;;0.26;66.76;94107.50;1759213;81;22263;-60
2020/12/04 08:38:54;;;;;;;66.12;39.92;;;;;;;0.54;66.26;94099.17;1742248;81;21087;-61
2020/12/04 08:41:38;;;;;;;55.15;37.00;;;;;;;0.74;65.97;94094.75;1778450;80;21138;-62
2020/12/04 08:44:06;;;;;;;159.52;76.50;;;;;;;0.91;65.67;94096.52;1744260;81;21210;-62
2020/12/04 08:46:36;;;;;;;129.47;63.85;;;;;;;1.14;65.58;94092.61;1760089;80;21193;-62
2020/12/04 08:49:04;;;;;;;96.45;52.33;;;;;;;1.64;65.10;94077.89;1756547;81;21204;-62
2020/12/04 08:51:33;;;;;;;70.95;44.08;;;;;;;2.07;64.01;94073.64;1756468;81;20997;-58
2020/12/04 08:54:02;;;;;;;46.73;29.60;;;;;;;2.48;62.97;94067.98;1731897;80;21098;-63
2020/12/04 08:56:31;;;;;;;44.27;29.52;;;;;;;2.81;61.63;94074.60;1756592;81;21479;-60
2020/12/04 08:59:00;;;;;;;57.60;37.35;;;;;;;2.94;60.55;94077.48;1757260;80;21163;-63
2020/12/04 09:01:29;;;;;;;47.45;30.55;;;;;;;2.90;60.23;94069.99;1758497;80;21157;-60
2020/12/04 09:04:08;;;;;;;43.98;28.12;;;;;;;2.89;60.20;94080.08;1755628;80;21657;-61
2020/12/04 09:07:14;;;;;;;60.67;35.08;;;;;;;3.11;60.19;94076.41;1745888;80;21070;-61
2020/12/04 09:10:21;;;;;;;59.13;37.25;;;;;;;3.65;59.35;94070.31;1867190;75;22794;-60
2020/12/04 09:12:59;;;;;;;65.97;41.58;;;;;;;3.96;58.55;94063.43;1824937;76;21054;-59
2020/12/04 09:15:31;;;;;;;55.10;34.25;;;;;;;4.27;57.74;94057.28;1826805;76;21423;-60
2020/12/04 09:18:05;;;;;;;71.80;45.85;;;;;;;4.41;56.99;94054.23;1807974;78;21229;-61
2020/12/04 09:20:35;;;;;;;60.17;39.92;;;;;;;4.34;56.84;94050.91;1819874;78;21559;-68
2020/12/04 09:23:19;;;;;;;55.35;36.15;;;;;;;4.53;56.71;94046.77;1833204;76;21567;-58
2020/12/04 09:25:50;;;;;;;56.45;34.95;;;;;;;5.04;55.70;94039.65;1824504;76;21194;-60
2020/12/04 09:28:57;;;;;;;46.25;31.68;;;;;;;5.51;55.19;94036.81;1813522;77;21598;-59
2020/12/04 09:31:35;;;;;;;51.35;33.63;;;;;;;6.04;54.00;94040.18;1811796;78;20997;-60
2020/12/04 09:34:09;;;;;;;64.43;36.57;;;;;;;6.20;53.11;94031.90;1796083;78;21222;-59
2020/12/04 09:36:49;;;;;;;57.15;37.28;;;;;;;6.24;53.00;94023.58;1792434;79;21096;-57
2020/12/04 09:39:19;;;;;;;62.75;38.30;;;;;;;6.52;52.69;94016.63;1816499;77;21111;-59
2020/12/04 09:41:53;;;;;;;53.68;35.60;;;;;;;6.66;51.70;94022.27;1771709;79;21215;-58
2020/12/04 09:44:23;;;;;;;56.77;37.65;;;;;;;6.48;51.89;94022.06;1793301;78;21095;-63
2020/12/04 09:47:19;;;;;;;67.03;41.10;;;;;;;6.38;51.94;94017.69;1807276;78;21186;-58
2020/12/04 09:49:56;;;;;;;72.30;42.60;;;;;;;6.43;51.99;94016.54;1790297;78;21047;-56
2020/12/04 09:52:45;;;;;;;64.72;38.48;;;;;;;6.57;51.96;94028.98;1845130;75;22755;-55
2020/12/04 09:55:14;;;;;;;58.73;37.03;;;;;;;6.55;51.93;94022.58;1834852;76;21156;-57
2020/12/04 09:57:57;;;;;;;94.85;56.80;;;;;;;6.64;52.16;94026.02;1813208;78;21359;-61
2020/12/04 10:00:33;;;;;;;107.07;61.55;;;;;;;6.97;51.82;94027.28;1839733;77;21108;-57
2020/12/04 10:03:06;;;;;;;65.97;41.23;;;;;;;7.37;50.84;94017.45;1841577;77;21049;-58
2020/12/04 10:05:35;;;;;;;61.08;34.30;;;;;;;7.75;50.18;94011.81;1841654;78;20930;-57
2020/12/04 10:08:03;;;;;;;53.33;32.20;;;;;;;8.12;49.17;94010.82;1841327;78;21125;-56
2020/12/04 10:10:32;;;;;;;75.60;44.18;;;;;;;8.18;48.44;94008.45;1841713;78;21417;-57
2020/12/04 10:13:01;;;;;;;44.95;29.05;;;;;;;8.23;48.35;94016.08;1841563;78;21010;-56
2020/12/04 10:15:29;;;;;;;36.05;23.18;;;;;;;8.36;47.92;94008.53;1841662;78;21048;-57
2020/12/04 10:17:57;;;;;;;38.75;23.40;;;;;;;8.37;47.70;94003.20;1841686;78;21470;-58
2020/12/04 10:20:26;;;;;;;35.73;22.62;;;;;;;8.37;47.67;93990.88;1838205;77;21529;-60
2020/12/04 10:22:55;;;;;;;33.38;22.20;;;;;;;8.44;47.65;94007.03;1832361;77;21180;-57
2020/12/04 10:25:23;;;;;;;32.50;21.42;;;;;;;8.73;47.30;93997.08;1821252;77;21296;-62
2020/12/04 10:27:52;;;;;;;37.85;25.57;;;;;;;9.13;46.75;93991.08;1796234;78;21107;-59
2020/12/04 10:30:22;;;;;;;56.95;32.83;;;;;;;9.54;45.93;94000.69;1795649;79;21161;-58
2020/12/04 10:32:51;;;;;;;42.25;28.87;;;;;;;9.59;45.70;93993.23;1780690;79;21615;-56
2020/12/04 10:35:20;;;;;;;35.43;23.25;;;;;;;9.62;46.15;93993.05;1784218;79;21612;-57
2020/12/04 10:37:50;;;;;;;44.53;26.00;;;;;;;10.02;45.25;93992.89;1776530;80;21153;-56
2020/12/04 10:40:19;;;;;;;33.13;22.35;;;;;;;10.44;44.39;93990.32;1776609;80;21119;-56
2020/12/04 10:42:48;;;;;;;30.02;19.27;;;;;;;10.81;43.54;93991.05;1779520;79;21431;-57
2020/12/04 10:45:16;;;;;;;54.95;34.23;;;;;;;10.99;42.85;93993.70;1808076;78;21486;-58
2020/12/04 10:47:45;;;;;;;67.90;43.83;;;;;;;11.21;42.52;93990.05;1808581;78;22330;-56
2020/12/04 10:50:13;;;;;;;69.32;43.55;;;;;;;11.32;42.46;93989.54;1808541;78;21121;-58
2020/12/04 10:52:44;;;;;;;60.60;38.88;;;;;;;11.37;42.95;93988.88;1778482;79;21136;-58
2020/12/04 10:55:13;;;;;;;47.73;32.70;;;;;;;11.63;42.56;93985.79;1797091;78;21569;-58
2020/12/04 10:57:42;;;;;;;44.45;26.45;;;;;;;11.87;42.33;93983.12;1766042;80;21134;-57
2020/12/04 11:00:18;;;;;;;35.08;22.25;;;;;;;11.92;41.49;93971.44;1769593;79;21287;-59
2020/12/04 11:02:57;;;;;;;30.97;22.42;;;;;;;11.85;41.68;93978.71;1762375;78;21636;-57
2020/12/04 11:08:21;;;;;;;37.50;26.55;;;;;;;12.19;41.14;93961.52;1909973;74;22695;-57
2020/12/04 11:10:54;;;;;;;34.70;27.55;;;;;;;12.23;41.09;93964.84;1846799;77;21168;-58
2020/12/04 11:13:32;;;;;;;48.17;35.28;;;;;;;12.27;41.84;93962.65;1814645;79;21363;-57
2020/12/04 11:16:07;;;;;;;38.20;29.07;;;;;;;12.50;41.52;93964.55;1816335;78;21014;-60
2020/12/04 11:18:50;;;;;;;53.23;36.77;;;;;;;12.83;41.10;93954.77;1837031;77;23846;-58
2020/12/04 11:21:21;;;;;;;71.87;50.35;;;;;;;13.15;40.90;93962.02;1809583;79;21592;-64
2020/12/04 11:23:53;;;;;;;60.63;41.25;;;;;;;13.74;40.01;93952.19;1779008;79;21353;-60
2020/12/04 11:26:22;;;;;;;41.60;29.10;;;;;;;14.45;38.47;93950.13;1781195;79;21496;-59
2020/12/04 11:28:54;;;;;;;;;;;;;;;14.80;37.18;93947.14;1780222;80;21052;-59
2020/12/04 11:31:23;;;;;;;39.03;25.30;;;;;;;14.91;36.87;93951.35;1777597;79;20246;-59
2020/12/04 11:33:52;;;;;;;33.55;22.07;;;;;;;15.23;36.16;93950.81;1777594;80;21493;-59
2020/12/04 11:36:21;;;;;;;43.60;29.85;;;;;;;15.64;35.76;93953.42;1777479;80;21029;-60
2020/12/04 11:38:50;;;;;;;68.50;44.33;;;;;;;15.88;34.74;93949.58;1777452;80;21031;-58